Time;durP1;ratioP1;P1;durP2;ratioP2;P2;SDS_P1;SDS_P2;PMS_P1;PMS_P2;Temp;Humidity;BMP_temperature;BMP_pressure;BME280_temperature;BME280_humidity;BME280_pressure;Samples;Min_cycle;Max_cycle;Signal;HPM_P1;HPM_P2
2023/01/27 00:01:51;;;;;;;;;6.67;4.33;;;;;6.65;69.44;101931.72;5036932;28;45341;-70
2023/01/27 00:04:17;;;;;;;;;9.67;5.33;;;;;6.72;68.46;101954.19;5038316;28;45254;-71
2023/01/27 00:06:42;;;;;;;;;7.33;4.67;;;;;6.76;68.25;101944.28;5037451;28;45400;-73
2023/01/27 00:09:08;;;;;;;;;6.33;6.00;;;;;6.90;68.69;101954.91;5036474;28;46140;-70
2023/01/27 00:14:17;;;;;;;;;10.67;9.33;;;;;6.58;67.46;101893.38;5036914;28;45409;-71
2023/01/27 00:16:42;;;;;;;;;6.00;4.00;;;;;6.78;67.18;101937.97;5037015;28;45530;-71
2023/01/27 00:19:08;;;;;;;;;3.33;3.33;;;;;6.94;67.28;101975.78;5036693;28;45968;-71
2023/01/27 00:24:35;;;;;;;;;5.00;5.00;;;;;6.79;67.54;101931.72;5036838;28;45431;-70
2023/01/27 00:27:07;;;;;;;;;10.33;6.33;;;;;6.97;67.04;101949.16;5036866;28;45466;-72
2023/01/27 00:29:34;;;;;;;;;7.00;7.00;;;;;6.74;66.77;101910.03;5054360;28;48743;-72
2023/01/27 00:34:44;;;;;;;;;10.33;9.33;;;;;7.02;66.64;101946.25;5056615;28;45267;-72
2023/01/27 00:37:09;;;;;;;;;14.67;13.00;;;;;7.12;66.90;101962.41;5056635;28;45548;-70
2023/01/27 00:39:35;;;;;;;;;16.67;12.00;;;;;7.12;67.35;101965.06;5056338;28;45588;-72
2023/01/27 00:42:00;;;;;;;;;10.00;8.67;;;;;6.96;67.27;101942.16;5056405;28;45503;-72
2023/01/27 00:44:26;;;;;;;;;6.00;6.00;;;;;6.84;67.26;101924.41;5055477;28;45409;-70
2023/01/27 00:46:51;;;;;;;;;10.33;7.67;;;;;6.98;67.39;101953.50;5055444;28;45617;-70
2023/01/27 00:49:17;;;;;;;;;9.00;7.33;;;;;7.08;67.32;101955.59;5056087;28;47441;-70
2023/01/27 00:51:42;;;;;;;;;9.67;7.67;;;;;6.73;67.84;101916.25;5054966;28;46514;-71
2023/01/27 00:54:08;;;;;;;;;8.00;5.67;;;;;6.56;68.33;101888.16;5059516;28;45556;-70
2023/01/27 00:56:34;;;;;;;;;6.67;6.00;;;;;6.75;67.96;101961.94;5059799;28;45362;-72
2023/01/27 00:58:59;;;;;;;;;3.33;3.33;;;;;6.77;68.21;101940.69;5059616;28;45630;-70
2023/01/27 01:01:24;;;;;;;;;5.67;4.33;;;;;6.78;68.01;101937.97;5059744;28;45383;-72
2023/01/27 01:03:50;;;;;;;;;8.67;4.00;;;;;6.75;68.07;101948.72;5060845;28;45218;-72
2023/01/27 01:06:17;;;;;;;;;5.33;3.33;;;;;6.49;67.95;101907.13;5060393;28;45190;-72
2023/01/27 01:08:43;;;;;;;;;5.00;3.33;;;;;6.80;68.50;101959.88;5057967;28;46493;-71
2023/01/27 01:11:12;;;;;;;;;4.00;3.00;;;;;6.74;68.52;101941.75;5059281;28;45293;-72
2023/01/27 01:13:38;;;;;;;;;4.00;4.00;;;;;6.01;67.90;101819.25;5059575;28;45353;-72
2023/01/27 01:16:14;;;;;;;;;3.00;3.00;;;;;5.89;68.14;101793.50;5059450;28;45618;-71
2023/01/27 01:18:40;;;;;;;;;2.33;2.33;;;;;5.52;68.68;101737.56;5059082;28;46306;-71
2023/01/27 01:21:06;;;;;;;;;4.00;3.33;;;;;5.77;68.55;101772.16;5058826;28;45199;-71
2023/01/27 01:23:33;;;;;;;;;6.33;6.00;;;;;6.87;68.04;101958.59;5059030;28;45446;-71
2023/01/27 01:25:58;;;;;;;;;8.33;4.33;;;;;6.82;67.68;101947.44;5057938;28;45983;-69
2023/01/27 01:28:24;;;;;;;;;5.67;3.67;;;;;6.61;68.17;101902.00;5048779;28;46463;-70
2023/01/27 01:30:50;;;;;;;;;4.33;4.33;;;;;6.82;67.87;101954.53;5039002;28;45512;-73
2023/01/27 01:33:16;;;;;;;;;5.00;3.33;;;;;6.62;68.25;101892.25;5039184;28;45305;-72
2023/01/27 01:35:41;;;;;;;;;4.00;3.00;;;;;6.72;68.10;101922.47;5039459;28;45523;-70
2023/01/27 01:38:07;;;;;;;;;4.00;4.00;;;;;6.57;68.21;101910.16;5038781;28;46345;-72
2023/01/27 01:40:33;;;;;;;;;4.33;3.67;;;;;6.10;68.28;101826.63;5039201;28;45302;-70
2023/01/27 01:43:04;;;;;;;;;6.00;3.00;;;;;6.61;68.69;101919.63;5021239;28;45474;-70
2023/01/27 01:45:32;;;;;;;;;4.33;3.33;;;;;6.69;68.86;101933.22;5020891;28;45457;-69
2023/01/27 01:48:18;;;;;;;;;4.33;3.00;;;;;6.73;68.69;101934.75;5038332;28;46510;-71
2023/01/27 01:50:50;;;;;;;;;5.67;3.67;;;;;6.58;68.85;101885.44;5023985;28;45462;-70
2023/01/27 01:53:16;;;;;;;;;6.33;5.00;;;;;6.77;67.83;101923.06;5038531;28;45440;-71
2023/01/27 01:55:41;;;;;;;;;5.67;4.67;;;;;6.68;68.42;101915.69;5038755;28;45424;-71
2023/01/27 01:58:10;;;;;;;;;3.00;3.00;;;;;6.69;68.38;101914.75;5038414;28;46129;-72
2023/01/27 02:00:36;;;;;;;;;2.00;2.00;;;;;6.85;68.52;101926.13;5020434;28;45749;-70
2023/01/27 02:03:02;;;;;;;;;5.00;4.00;;;;;6.70;67.43;101903.22;5038464;28;45260;-70
2023/01/27 02:05:36;;;;;;;;;4.00;3.00;;;;;6.87;67.55;101937.44;5020687;28;45536;-70
2023/01/27 02:08:12;;;;;;;;;9.00;4.00;;;;;6.36;67.12;101852.34;5037989;28;45546;-71
2023/01/27 02:10:37;;;;;;;;;4.67;3.00;;;;;6.50;67.23;101872.69;5038124;28;45191;-71
2023/01/27 02:13:03;;;;;;;;;6.00;3.00;;;;;6.72;66.94;101906.63;5038361;28;45733;-71
2023/01/27 02:15:30;;;;;;;;;3.00;3.00;;;;;6.54;67.24;101871.56;5038725;28;45178;-70
2023/01/27 02:17:56;;;;;;;;;4.33;2.67;;;;;6.63;67.30;101881.59;5038417;28;45832;-71
2023/01/27 02:20:44;;;;;;;;;4.00;2.67;;;;;6.63;67.51;101893.97;5038537;28;45450;-71
2023/01/27 02:23:32;;;;;;;;;5.67;3.00;;;;;6.75;67.29;101903.78;5021533;28;45364;-69
2023/01/27 02:25:58;;;;;;;;;4.00;3.00;;;;;6.70;67.07;101908.50;5013362;28;45384;-70
2023/01/27 02:28:27;;;;;;;;;2.00;2.00;;;;;6.60;67.72;101888.84;5038235;28;45880;-70
2023/01/27 02:30:52;;;;;;;;;5.67;3.33;;;;;6.63;67.69;101889.53;5037949;28;45330;-70
2023/01/27 02:33:18;;;;;;;;;4.67;4.00;;;;;5.59;67.49;101717.81;5038041;28;45285;-70
2023/01/27 02:35:48;;;;;;;;;4.00;3.00;;;;;6.67;67.28;101908.69;5038052;28;45491;-70
2023/01/27 02:38:16;;;;;;;;;3.00;3.00;;;;;6.48;67.84;101886.94;5037969;28;45599;-71
2023/01/27 02:40:43;;;;;;;;;5.33;5.33;;;;;6.49;67.94;101878.91;5037652;28;45413;-71
2023/01/27 02:43:08;;;;;;;;;3.33;3.33;;;;;5.68;67.06;101735.75;5037967;28;45526;-70
2023/01/27 02:45:34;;;;;;;;;3.00;3.00;;;;;6.59;67.19;101879.22;5038131;28;45569;-70
2023/01/27 02:47:59;;;;;;;;;4.00;4.00;;;;;5.87;67.29;101779.56;5037905;28;46008;-71
2023/01/27 02:50:25;;;;;;;;;9.33;4.67;;;;;4.96;67.33;101619.50;5037766;28;45487;-71
2023/01/27 02:52:50;;;;;;;;;8.00;8.00;;;;;6.64;67.03;101908.88;5038108;28;45318;-71
2023/01/27 02:55:15;;;;;;;;;4.00;3.00;;;;;6.47;66.59;101866.75;5038215;28;45416;-71
2023/01/27 02:57:41;;;;;;;;;3.00;3.00;;;;;5.63;66.32;101735.19;5038948;28;45270;-69
2023/01/27 03:00:08;;;;;;;;;5.33;4.33;;;;;6.57;66.24;101859.97;5037546;28;45337;-71
2023/01/27 03:02:33;;;;;;;;;2.00;2.00;;;;;6.72;66.07;101910.13;5019739;28;45306;-70
2023/01/27 03:04:59;;;;;;;;;2.67;2.00;;;;;6.65;66.12;101889.44;5019578;28;45621;-73
2023/01/27 03:07:25;;;;;;;;;2.00;1.67;;;;;6.74;66.35;101894.16;5019457;28;47646;-69
2023/01/27 03:09:51;;;;;;;;;2.00;1.00;;;;;6.66;66.01;101884.06;5037326;28;45473;-70
2023/01/27 03:12:19;;;;;;;;;7.00;3.67;;;;;6.74;65.66;101904.75;5037656;28;45481;-71
2023/01/27 03:20:13;;;;;;;;;4.00;3.00;;;;;6.35;65.97;101826.03;5037382;28;45504;-71
2023/01/27 03:22:38;;;;;;;;;8.00;3.00;;;;;6.46;65.92;101836.84;5037449;28;45574;-70
2023/01/27 03:25:04;;;;;;;;;2.00;2.00;;;;;6.70;66.05;101869.72;5037482;28;45507;-72
2023/01/27 03:27:29;;;;;;;;;4.67;4.67;;;;;6.74;66.28;101899.44;5036790;28;45709;-71
2023/01/27 03:29:55;;;;;;;;;6.00;3.00;;;;;6.16;65.78;101791.94;5037021;28;45711;-69
2023/01/27 03:32:23;;;;;;;;;6.33;5.00;;;;;6.74;65.67;101896.81;5037242;28;45267;-71
2023/01/27 03:34:48;;;;;;;;;5.33;5.33;;;;;6.72;65.55;101904.81;5037742;28;45560;-71
2023/01/27 03:48:11;;;;;;;;;3.00;3.00;;;;;6.05;65.46;101770.63;5037054;28;45475;-70
2023/01/27 03:50:36;;;;;;;;;3.67;3.67;;;;;6.58;66.18;101877.50;5036744;28;45483;-71
2023/01/27 03:53:02;;;;;;;;;5.00;2.67;;;;;6.76;66.61;101894.91;5036822;28;45522;-71
2023/01/27 03:55:32;;;;;;;;;3.00;2.00;;;;;6.38;66.09;101815.28;5037315;28;45465;-70
2023/01/27 03:58:13;;;;;;;;;6.00;4.00;;;;;6.49;66.13;101878.06;5036541;28;46628;-70
2023/01/27 04:00:39;;;;;;;;;2.00;2.00;;;;;6.47;65.79;101906.38;5036758;28;45262;-71
2023/01/27 04:08:32;;;;;;;;;3.67;3.33;;;;;6.22;68.19;101880.53;5036981;28;45428;-70
2023/01/27 04:13:45;;;;;;;;;3.00;3.00;;;;;6.11;67.64;101852.09;5037040;28;45499;-71
2023/01/27 04:16:11;;;;;;;;;5.67;3.00;;;;;6.05;67.24;101857.72;5018827;28;45555;-72
2023/01/27 04:18:36;;;;;;;;;4.33;4.33;;;;;6.05;67.65;101842.75;5036380;28;46564;-71
2023/01/27 04:21:03;;;;;;;;;6.33;4.00;;;;;6.28;67.56;101880.16;5036562;28;45527;-70
2023/01/27 04:23:28;;;;;;;;;6.00;3.00;;;;;5.80;67.80;101790.44;5036739;28;45439;-71
2023/01/27 04:25:55;;;;;;;;;5.00;3.00;;;;;5.79;67.64;101780.84;5036647;28;45550;-71
2023/01/27 04:28:21;;;;;;;;;4.67;4.67;;;;;6.11;67.20;101854.72;5038190;28;45644;-70
2023/01/27 04:30:46;;;;;;;;;2.00;2.00;;;;;6.35;67.58;101887.63;5039780;28;45324;-69
2023/01/27 04:33:14;;;;;;;;;3.00;2.33;;;;;6.40;67.49;101879.44;5022162;28;45492;-69
2023/01/27 04:35:43;;;;;;;;;4.33;2.33;;;;;6.47;67.04;101883.44;5022261;28;45322;-71
2023/01/27 04:38:09;;;;;;;;;3.67;3.00;;;;;5.91;67.22;101802.22;5039804;28;46374;-69
2023/01/27 04:40:34;;;;;;;;;2.00;2.00;;;;;6.34;67.15;101870.09;5039675;28;45365;-70
2023/01/27 04:42:59;;;;;;;;;2.33;2.33;;;;;6.12;67.01;101816.81;5039765;28;45400;-69
2023/01/27 04:45:25;;;;;;;;;3.00;2.00;;;;;6.32;67.30;101871.97;5021929;28;45246;-71
2023/01/27 04:47:50;;;;;;;;;3.33;2.33;;;;;6.43;67.47;101863.44;5039643;28;45972;-71
2023/01/27 04:50:16;;;;;;;;;4.00;2.00;;;;;6.47;67.10;101864.09;5039541;28;45397;-71
2023/01/27 04:52:41;;;;;;;;;4.00;4.00;;;;;6.04;67.70;101787.38;5039718;28;45768;-68
2023/01/27 04:55:07;;;;;;;;;2.00;2.00;;;;;6.61;66.69;101877.34;5039747;28;45286;-70
2023/01/27 04:57:32;;;;;;;;;3.00;3.00;;;;;6.57;66.85;101889.03;5021319;28;48385;-70
2023/01/27 04:59:57;;;;;;;;;5.00;4.00;;;;;6.03;66.85;101802.38;5039662;28;45503;-70
2023/01/27 05:02:25;;;;;;;;;3.00;2.00;;;;;6.53;67.04;101874.28;5039960;28;45270;-71
2023/01/27 05:04:50;;;;;;;;;2.00;2.00;;;;;6.61;66.46;101872.06;5039710;28;45463;-70
2023/01/27 05:07:15;;;;;;;;;5.00;5.00;;;;;6.61;65.80;101869.44;5038926;28;45503;-72
2023/01/27 05:09:41;;;;;;;;;4.00;4.00;;;;;6.35;65.49;101844.53;5038904;28;45381;-71
2023/01/27 05:12:06;;;;;;;;;7.67;4.00;;;;;5.99;65.79;101769.16;5038982;28;45664;-71
2023/01/27 05:14:32;;;;;;;;;4.00;3.00;;;;;6.47;66.05;101864.94;5021755;28;45462;-71
2023/01/27 05:16:57;;;;;;;;;3.33;3.33;;;;;6.52;66.38;101857.59;5038869;28;45514;-71
2023/01/27 05:19:22;;;;;;;;;2.00;2.00;;;;;6.13;65.74;101792.13;5038903;28;46573;-71
2023/01/27 05:21:48;;;;;;;;;8.00;3.00;;;;;6.59;65.89;101876.56;5039096;28;45223;-71
2023/01/27 05:24:13;;;;;;;;;4.00;2.00;;;;;6.63;65.87;101871.03;5039072;28;45444;-70
2023/01/27 05:26:39;;;;;;;;;3.67;2.33;;;;;6.61;65.64;101867.63;5038641;28;47593;-71
2023/01/27 05:29:05;;;;;;;;;2.33;2.33;;;;;6.44;65.37;101859.00;5038841;28;45429;-70
2023/01/27 05:31:30;;;;;;;;;5.00;4.00;;;;;6.48;65.81;101881.66;5038826;28;45464;-69
2023/01/27 05:33:58;;;;;;;;;7.67;3.33;;;;;5.47;65.72;101685.09;5039075;28;45542;-71
2023/01/27 05:36:25;;;;;;;;;2.33;2.00;;;;;6.25;65.36;101828.38;5038473;28;46612;-72
2023/01/27 05:38:51;;;;;;;;;9.00;4.00;;;;;6.44;65.12;101861.66;5037943;28;45501;-71
2023/01/27 05:41:18;;;;;;;;;3.33;3.33;;;;;6.48;65.70;101871.09;5038755;28;45480;-70
2023/01/27 05:43:45;;;;;;;;;2.00;2.00;;;;;6.26;65.31;101821.31;5038518;28;45609;-69
2023/01/27 05:46:16;;;;;;;;;3.00;3.00;;;;;6.31;65.44;101841.22;5038445;28;45835;-72
2023/01/27 05:48:44;;;;;;;;;2.00;2.00;;;;;6.50;65.29;101871.84;5038512;28;45556;-70
2023/01/27 05:51:11;;;;;;;;;4.33;4.00;;;;;5.98;65.59;101829.97;5039199;28;45376;-70
2023/01/27 05:53:36;;;;;;;;;3.00;3.00;;;;;5.93;66.19;101809.13;5021328;28;45232;-71
2023/01/27 05:56:02;;;;;;;;;4.33;4.33;;;;;6.20;66.11;101856.81;5038363;28;45550;-71
2023/01/27 05:58:28;;;;;;;;;3.33;3.33;;;;;6.09;65.68;101824.94;5020486;28;45308;-71
2023/01/27 06:00:54;;;;;;;;;2.33;2.33;;;;;6.25;65.76;101860.06;5038698;28;45436;-73
2023/01/27 06:03:20;;;;;;;;;4.00;2.67;;;;;6.31;66.00;101883.47;5040706;28;46258;-71
2023/01/27 06:05:54;;;;;;;;;4.33;2.00;;;;;6.38;65.59;101874.25;5048622;28;45564;-72
2023/01/27 06:08:21;;;;;;;;;5.67;3.00;;;;;6.33;66.41;101862.25;5038582;28;45264;-71
2023/01/27 06:10:46;;;;;;;;;7.67;3.00;;;;;6.42;66.05;101874.09;5038025;28;45444;-71
2023/01/27 06:13:12;;;;;;;;;5.00;3.00;;;;;6.45;65.97;101873.91;5038347;28;45361;-71
2023/01/27 06:15:48;;;;;;;;;5.33;4.00;;;;;4.31;65.23;101513.44;5033507;28;48670;-71
2023/01/27 06:18:16;;;;;;;;;4.00;3.00;;;;;6.24;65.47;101854.88;5058838;28;45294;-71
2023/01/27 06:20:42;;;;;;;;;3.33;1.00;;;;;6.34;65.88;101900.94;5055735;28;45514;-70
2023/01/27 06:23:09;;;;;;;;;6.67;4.00;;;;;6.30;66.25;101889.69;5056792;28;45187;-71
2023/01/27 06:25:39;;;;;;;;;6.33;3.00;;;;;6.18;66.00;101866.63;5037669;28;46490;-70
2023/01/27 06:28:06;;;;;;;;;4.33;2.33;;;;;5.54;65.67;101746.25;5037624;28;45413;-69
2023/01/27 06:30:35;;;;;;;;;5.00;3.00;;;;;6.28;65.76;101896.00;5037908;28;45251;-71
2023/01/27 06:33:01;;;;;;;;;4.00;3.00;;;;;6.20;65.76;101899.06;5041739;28;45495;-70
2023/01/27 06:35:28;;;;;;;;;6.00;3.00;;;;;5.95;65.42;101849.47;5045493;28;46547;-73
2023/01/27 06:37:54;;;;;;;;;4.33;3.33;;;;;6.17;65.16;101886.06;5019949;28;45444;-72
2023/01/27 06:40:19;;;;;;;;;2.67;2.67;;;;;6.15;66.03;101864.16;5020698;28;45344;-71
2023/01/27 06:42:45;;;;;;;;;3.00;3.00;;;;;6.22;64.82;101891.94;5039337;28;45246;-70
2023/01/27 06:45:11;;;;;;;;;4.67;3.33;;;;;5.31;65.87;101728.25;5038620;28;46574;-70
2023/01/27 06:47:38;;;;;;;;;4.00;3.00;;;;;6.24;65.79;101890.06;5037796;28;45357;-73
2023/01/27 06:50:05;;;;;;;;;3.33;2.33;;;;;6.23;66.41;101896.28;5037345;28;45251;-71
2023/01/27 06:52:30;;;;;;;;;3.33;2.67;;;;;6.02;65.52;101845.56;5037940;28;45419;-72
2023/01/27 06:54:56;;;;;;;;;2.33;2.33;;;;;6.24;65.34;101874.22;5019474;28;48781;-72
2023/01/27 06:57:21;;;;;;;;;4.33;3.67;;;;;5.93;65.30;101822.31;5037124;28;46255;-72
2023/01/27 06:59:47;;;;;;;;;5.00;3.33;;;;;6.36;65.15;101884.06;5037195;28;45376;-73
2023/01/27 07:02:12;;;;;;;;;9.00;3.00;;;;;5.97;64.93;101801.88;5020081;28;45710;-72
2023/01/27 07:04:38;;;;;;;;;8.00;3.00;;;;;6.50;65.04;101900.91;5036987;28;45776;-70
2023/01/27 07:07:03;;;;;;;;;6.00;4.67;;;;;6.51;64.75;101892.03;5044608;28;45428;-70
2023/01/27 07:09:29;;;;;;;;;4.00;4.00;;;;;6.49;65.07;101893.91;5057159;28;45905;-68
2023/01/27 07:11:54;;;;;;;;;4.00;3.00;;;;;6.55;64.76;101893.56;5057432;28;45396;-70
2023/01/27 07:14:19;;;;;;;;;5.00;5.00;;;;;6.27;64.52;101863.47;5055742;28;45659;-69
2023/01/27 07:16:45;;;;;;;;;4.67;3.00;;;;;6.50;64.42;101919.41;5055683;28;45356;-70
2023/01/27 07:19:11;;;;;;;;;2.00;1.67;;;;;6.50;64.60;101911.47;5053612;28;45255;-72
2023/01/27 07:21:37;;;;;;;;;5.33;4.67;;;;;6.50;64.39;101901.75;5036751;28;45566;-72
2023/01/27 07:24:03;;;;;;;;;5.33;4.33;;;;;6.41;65.22;101907.59;5055158;28;45897;-71
2023/01/27 07:26:29;;;;;;;;;5.67;4.33;;;;;6.02;64.58;101827.09;5054752;28;45440;-76
2023/01/27 07:28:54;;;;;;;;;6.33;4.67;;;;;5.79;64.52;101783.47;5056627;28;45266;-71
2023/01/27 07:31:20;;;;;;;;;5.00;4.00;;;;;6.43;65.14;101916.25;5057266;28;45469;-71
2023/01/27 07:33:45;;;;;;;;;4.00;4.00;;;;;6.50;65.37;101919.41;5055729;28;46230;-70
2023/01/27 07:36:11;;;;;;;;;8.67;4.67;;;;;6.43;64.74;101900.41;5055041;28;45439;-70
2023/01/27 07:38:37;;;;;;;;;5.67;5.33;;;;;6.47;64.69;101919.56;5055728;28;45814;-69
2023/01/27 07:41:04;;;;;;;;;6.33;5.00;;;;;6.46;65.05;101920.50;5056211;28;45583;-71
2023/01/27 07:43:31;;;;;;;;;2.00;1.00;;;;;6.46;64.74;101937.22;5040397;28;45945;-74
2023/01/27 07:45:56;;;;;;;;;7.67;5.67;;;;;5.40;64.84;101752.28;5041633;28;45378;-70
2023/01/27 07:48:22;;;;;;;;;5.00;5.00;;;;;6.36;65.89;101928.94;5044728;28;45518;-71
2023/01/27 07:50:47;;;;;;;;;4.67;1.00;;;;;5.52;65.33;101781.56;5039050;28;45226;-71
2023/01/27 07:53:13;;;;;;;;;5.00;5.00;;;;;6.11;65.77;101878.50;5045180;28;46387;-69
2023/01/27 07:55:38;;;;;;;;;6.33;6.33;;;;;6.27;66.10;101932.13;5039077;28;45464;-72
2023/01/27 07:58:04;;;;;;;;;12.67;7.00;;;;;6.27;66.65;101937.41;5051991;28;45379;-71
2023/01/27 08:00:31;;;;;;;;;10.33;5.00;;;;;6.29;66.71;101942.59;5034779;28;45339;-71
2023/01/27 08:02:58;;;;;;;;;4.33;4.00;;;;;6.34;66.22;101940.53;5040076;28;45686;-71
2023/01/27 08:05:24;;;;;;;;;8.00;8.00;;;;;6.33;66.36;101944.97;5040520;28;45464;-72
2023/01/27 08:07:50;;;;;;;;;8.33;6.33;;;;;6.35;66.54;101943.09;5060494;28;45496;-73
2023/01/27 08:10:17;;;;;;;;;10.67;9.33;;;;;5.85;66.62;101868.53;5028881;28;45536;-73
2023/01/27 08:12:44;;;;;;;;;8.00;5.00;;;;;5.67;67.13;101851.94;5039765;28;45746;-73
2023/01/27 08:15:09;;;;;;;;;9.33;6.00;;;;;5.35;67.27;101793.03;5050841;28;45245;-73
2023/01/27 08:17:35;;;;;;;;;15.33;9.67;;;;;6.31;67.05;101946.88;5060748;28;45548;-73
2023/01/27 08:20:00;;;;;;;;;9.67;6.67;;;;;5.91;66.84;101876.97;5060119;28;45503;-72
2023/01/27 08:22:27;;;;;;;;;10.33;7.00;;;;;5.71;67.31;101835.00;5056705;28;45739;-72
2023/01/27 08:24:52;;;;;;;;;39.67;23.00;;;;;6.28;67.29;101928.56;5033003;28;45399;-72
2023/01/27 08:27:18;;;;;;;;;5.00;5.00;;;;;6.56;66.11;101961.31;5039969;28;45321;-73
2023/01/27 08:29:43;;;;;;;;;12.33;10.33;;;;;6.31;66.10;101933.66;5051831;28;45372;-75
2023/01/27 08:32:09;;;;;;;;;6.00;3.67;;;;;6.37;66.41;101943.88;5040360;28;45551;-74
2023/01/27 08:34:35;;;;;;;;;11.67;6.33;;;;;6.43;65.51;101944.47;5053719;28;45401;-72
2023/01/27 08:37:01;;;;;;;;;8.00;8.00;;;;;6.21;65.18;101911.38;5042135;28;45264;-73
2023/01/27 08:39:26;;;;;;;;;10.67;9.00;;;;;5.95;65.34;101862.66;5040183;28;45482;-72
2023/01/27 08:41:52;;;;;;;;;11.33;9.00;;;;;6.46;66.01;101963.63;5039617;28;45576;-73
2023/01/27 08:44:17;;;;;;;;;8.33;8.33;;;;;6.47;64.87;101954.78;5039632;28;45205;-71
2023/01/27 08:46:42;;;;;;;;;13.00;11.00;;;;;6.59;64.94;101969.91;5021449;28;45421;-69
2023/01/27 08:49:08;;;;;;;;;10.00;8.67;;;;;5.56;64.60;101801.53;5046480;28;45372;-72
2023/01/27 08:51:33;;;;;;;;;13.33;10.67;;;;;6.03;64.70;101910.63;5059168;28;45934;-71
2023/01/27 08:53:59;;;;;;;;;8.67;8.67;;;;;6.42;64.41;101977.13;5057949;28;45477;-75
2023/01/27 08:56:24;;;;;;;;;11.33;10.00;;;;;6.36;64.74;101952.72;5021273;28;45247;-71
2023/01/27 08:58:51;;;;;;;;;11.00;10.00;;;;;6.20;64.54;101957.16;5036233;28;45380;-72
2023/01/27 09:01:17;;;;;;;;;7.67;4.00;;;;;5.72;64.79;101907.94;5039946;28;47418;-72
2023/01/27 09:03:42;;;;;;;;;8.67;8.00;;;;;5.89;65.40;101942.16;5059444;28;46221;-72
2023/01/27 09:06:10;;;;;;;;;6.67;5.00;;;;;6.13;66.23;101965.53;5059113;28;45308;-72
2023/01/27 09:08:35;;;;;;;;;12.00;9.33;;;;;6.07;65.18;101972.00;5045628;28;45525;-71
2023/01/27 09:11:16;;;;;;;;;11.00;10.33;;;;;5.97;65.20;101941.75;5039196;28;45606;-70
2023/01/27 09:13:42;;;;;;;;;8.67;8.00;;;;;5.15;65.03;101787.06;5023863;28;45396;-73
2023/01/27 09:16:08;;;;;;;;;8.00;6.67;;;;;6.02;65.18;101950.31;5041333;28;45395;-71
2023/01/27 09:18:34;;;;;;;;;13.00;12.00;;;;;6.10;65.44;101990.31;5060743;28;45405;-72
2023/01/27 09:21:06;;;;;;;;;9.33;9.00;;;;;5.98;64.48;101973.34;5059767;28;46659;-72
2023/01/27 09:23:32;;;;;;;;;10.67;8.00;;;;;5.70;64.35;101936.19;5059300;28;45570;-73
2023/01/27 09:25:58;;;;;;;;;9.67;9.67;;;;;6.03;64.72;101992.44;5047575;28;45465;-76
2023/01/27 09:28:23;;;;;;;;;10.33;8.67;;;;;5.99;64.75;101990.88;5055053;28;45245;-74
2023/01/27 09:30:48;;;;;;;;;7.00;7.00;;;;;6.12;63.56;101996.34;5066523;28;45421;-72
2023/01/27 09:33:14;;;;;;;;;11.67;9.00;;;;;6.10;63.31;101990.31;5064524;27;45421;-73
2023/01/27 09:35:47;;;;;;;;;8.00;5.67;;;;;5.64;64.40;101926.81;5065520;28;45458;-73
2023/01/27 09:38:19;;;;;;;;;12.00;8.00;;;;;6.09;64.03;101991.25;5059468;28;45314;-73
2023/01/27 09:41:22;;;;;;;;;8.67;6.33;;;;;6.10;63.83;101993.81;5063449;28;45532;-71
2023/01/27 09:43:47;;;;;;;;;15.00;11.00;;;;;6.23;63.66;101987.84;5079013;28;45243;-71
2023/01/27 09:46:38;;;;;;;;;9.00;8.67;;;;;5.95;63.15;101962.97;5061816;28;45272;-74
2023/01/27 09:49:16;;;;;;;;;10.33;8.00;;;;;6.24;63.00;101995.69;5059015;28;45560;-71
2023/01/27 09:52:10;;;;;;;;;10.67;9.67;;;;;6.21;62.94;101997.66;5076894;28;47816;-74
2023/01/27 09:54:51;;;;;;;;;14.00;12.67;;;;;5.41;62.41;101880.59;5076626;28;46435;-73
2023/01/27 09:57:19;;;;;;;;;11.67;7.67;;;;;6.16;62.69;102003.16;5059317;27;45447;-73
2023/01/27 10:00:00;;;;;;;;;9.33;8.33;;;;;6.24;61.90;102002.75;5069175;27;45279;-74
2023/01/27 10:02:57;;;;;;;;;11.67;10.33;;;;;6.26;62.54;102009.66;5080883;28;48025;-76
2023/01/27 10:05:34;;;;;;;;;9.67;8.00;;;;;5.15;61.23;101815.22;5080324;27;45453;-74
2023/01/27 10:08:41;;;;;;;;;11.00;9.33;;;;;6.07;62.49;102001.06;5079181;28;45334;-75
2023/01/27 10:11:15;;;;;;;;;5.33;5.33;;;;;5.94;62.36;102019.34;5065238;27;47317;-75
2023/01/27 10:13:59;;;;;;;;;10.67;8.33;;;;;5.27;61.87;101890.19;5057237;28;48487;-72
2023/01/27 10:17:23;;;;;;;;;16.67;10.67;;;;;5.92;62.84;102002.72;5057937;28;45347;-72
2023/01/27 10:20:00;;;;;;;;;8.67;8.67;;;;;5.96;62.86;101998.97;4997974;28;45568;-74
2023/01/27 10:22:31;;;;;;;;;4.67;4.67;;;;;5.23;62.90;101873.69;5005857;28;45788;-74
2023/01/27 10:25:11;;;;;;;;;10.00;10.00;;;;;6.01;62.16;102012.81;5035531;28;46356;-71
2023/01/27 10:27:39;;;;;;;;;10.00;8.67;;;;;6.12;63.05;102017.47;5075480;27;45448;-74
2023/01/27 10:30:07;;;;;;;;;9.67;9.00;;;;;6.06;62.08;102009.91;5067227;28;45265;-74
2023/01/27 10:32:39;;;;;;;;;10.00;9.00;;;;;6.08;61.50;102013.31;5077372;27;45376;-73
2023/01/27 10:35:19;;;;;;;;;9.67;9.67;;;;;6.14;62.28;102002.41;5063625;27;46254;-74
2023/01/27 10:38:33;;;;;;;;;15.00;10.00;;;;;6.05;61.46;101997.66;5077442;28;45416;-73
2023/01/27 10:41:06;;;;;;;;;19.00;9.00;;;;;6.04;61.58;102017.91;5030878;28;45538;-74
2023/01/27 10:43:42;;;;;;;;;8.33;8.33;;;;;5.26;62.53;101886.69;5057271;28;45524;-75
2023/01/27 10:46:40;;;;;;;;;12.33;10.67;;;;;6.08;62.27;102015.94;5067075;28;45398;-72
2023/01/27 10:49:23;;;;;;;;;9.33;8.33;;;;;5.41;61.81;101909.63;5021644;28;45977;-76
2023/01/27 10:52:17;;;;;;;;;15.67;11.67;;;;;5.99;62.45;101997.97;5057626;28;45382;-76
2023/01/27 10:54:49;;;;;;;;;14.00;10.00;;;;;6.07;61.99;102019.53;5052173;28;45433;-73
2023/01/27 10:57:26;;;;;;;;;15.00;15.00;;;;;6.10;62.27;102019.34;5074647;28;45391;-73
2023/01/27 11:00:16;;;;;;;;;12.00;8.33;;;;;6.04;62.39;102041.69;5065145;28;45637;-73
2023/01/27 11:03:13;;;;;;;;;10.00;9.00;;;;;6.08;62.44;102016.81;5076499;28;45532;-78
2023/01/27 11:05:44;;;;;;;;;12.33;10.67;;;;;5.48;62.14;101908.34;5077222;28;45435;-75
2023/01/27 11:08:23;;;;;;;;;8.67;5.00;;;;;5.87;62.17;101991.53;5070820;27;47358;-76
2023/01/27 11:13:38;;;;;;;;;12.00;9.33;;;;;6.21;61.73;102018.78;5078512;28;45489;-73
2023/01/27 11:16:06;;;;;;;;;8.67;8.33;;;;;6.30;61.89;102027.03;5076609;28;45464;-75
2023/01/27 11:18:35;;;;;;;;;12.33;9.67;;;;;6.35;61.41;102019.69;5075878;28;47412;-72
2023/01/27 11:21:21;;;;;;;;;14.33;11.00;;;;;5.76;61.46;101905.03;5076619;27;45483;-69
2023/01/27 11:23:54;;;;;;;;;16.67;15.67;;;;;6.22;62.19;102018.69;5078791;27;45410;-73
2023/01/27 11:26:34;;;;;;;;;9.00;9.00;;;;;5.23;61.84;101872.81;5065619;28;45551;-75
2023/01/27 11:29:18;;;;;;;;;7.00;7.00;;;;;6.14;62.85;102010.31;5042306;28;45435;-73
2023/01/27 11:32:04;;;;;;;;;9.33;9.33;;;;;5.92;61.93;101947.31;5051687;28;45419;-73
2023/01/27 11:34:54;;;;;;;;;15.33;12.00;;;;;6.18;62.35;101989.88;5057627;28;45554;-72
2023/01/27 11:37:25;;;;;;;;;11.33;10.33;;;;;4.86;62.09;101788.66;5028945;28;45482;-75
2023/01/27 11:39:50;;;;;;;;;12.33;12.00;;;;;6.01;62.15;101959.16;5058190;28;46251;-73
2023/01/27 11:42:16;;;;;;;;;12.33;10.00;;;;;6.20;62.59;101983.56;5022585;28;45440;-74
2023/01/27 11:44:44;;;;;;;;;12.33;9.67;;;;;6.29;61.85;101987.50;5038182;28;45237;-71
2023/01/27 11:47:25;;;;;;;;;16.67;16.33;;;;;4.70;61.94;101705.25;5055499;28;45416;-73
2023/01/27 11:49:53;;;;;;;;;16.67;14.00;;;;;5.02;61.79;101764.97;5058577;28;45400;-74
2023/01/27 11:52:21;;;;;;;;;12.67;11.67;;;;;5.97;62.22;101949.69;5021300;28;45344;-74
2023/01/27 11:55:02;;;;;;;;;9.00;9.00;;;;;6.07;63.08;101998.41;5019320;28;45454;-73
2023/01/27 11:57:28;;;;;;;;;13.33;12.00;;;;;5.62;62.66;101909.38;5019404;28;45507;-74
2023/01/27 12:00:06;;;;;;;;;12.00;11.33;;;;;5.02;63.01;101822.97;5019823;28;48007;-72
2023/01/27 12:02:46;;;;;;;;;17.00;12.33;;;;;5.23;63.37;101836.78;5038932;28;45424;-74
2023/01/27 12:05:16;;;;;;;;;18.00;12.00;;;;;6.08;63.15;102000.97;5043647;28;45213;-72
2023/01/27 12:07:59;;;;;;;;;13.33;11.33;;;;;6.06;62.31;101987.00;5039539;28;45598;-73
2023/01/27 12:10:33;;;;;;;;;12.67;12.67;;;;;6.08;62.80;101971.06;5037157;28;48060;-74
2023/01/27 12:13:13;;;;;;;;;16.00;11.67;;;;;6.16;62.09;101979.41;5037563;28;45447;-73
2023/01/27 12:15:49;;;;;;;;;12.00;11.33;;;;;5.80;62.06;101896.00;5037160;28;45484;-74